Orbital elements of COSMOS 1275 DEB
| Launched | 3 June 1981 |
| Flight ended | – |
| Launch site | Plesetsk Missile and Space Complex, Russia |
| Owner | Commonwealth of Independent States (former USSR) |
| NORAD ID | 42191 |
| Date fetched |
Epoch osculation |
Inc. [°] |
Ecc. | RA asc node [hr] |
Arg Peri. [°] |
Mean anom [°] |
Mean motion [rev/day] |
Abs. mag |
| Date fetched |
Epoch osculation |
Inc. [°] |
Ecc. | RA asc node [hr] |
Arg Peri. [°] |
Mean anom [°] |
Mean motion [rev/day] |
Abs. mag |
| 2026 May 01 17:56 | 2026 Apr 30 09:01:12 | 82.8222 | 0.00412 | 10.9632 | 103.8213 | 256.7555 | 14.10395 | – |
| 2026 Apr 30 17:56 | 2026 Apr 30 09:01:12 | 82.8222 | 0.00412 | 10.9632 | 103.8213 | 256.7555 | 14.10395 | – |
| 2026 Apr 29 17:57 | 2026 Apr 20 20:51:46 | 82.8227 | 0.00411 | 11.4697 | 130.5210 | 256.7555 | 14.10395 | – |
| 2026 Apr 28 17:56 | 2026 Apr 20 20:51:46 | 82.8227 | 0.00411 | 11.4697 | 130.5210 | 256.7555 | 14.10395 | – |
| 2026 Apr 27 17:58 | 2026 Apr 20 20:51:46 | 82.8227 | 0.00411 | 11.4697 | 130.5210 | 256.7555 | 14.10395 | – |
| 2026 Apr 26 17:58 | 2026 Apr 20 20:51:46 | 82.8227 | 0.00411 | 11.4697 | 130.5210 | 256.7555 | 14.10395 | – |
| 2026 Apr 25 17:58 | 2026 Apr 20 20:51:46 | 82.8227 | 0.00411 | 11.4697 | 130.5210 | 256.7555 | 14.10395 | – |
| 2026 Apr 24 17:59 | 2026 Apr 20 20:51:46 | 82.8227 | 0.00411 | 11.4697 | 130.5210 | 256.7555 | 14.10395 | – |
| 2026 Apr 23 17:57 | 2026 Apr 18 10:58:16 | 82.8228 | 0.00410 | 11.5982 | 137.3303 | 256.7555 | 14.10395 | – |
| 2026 Apr 22 17:57 | 2026 Apr 18 10:58:16 | 82.8228 | 0.00410 | 11.5982 | 137.3303 | 256.7555 | 14.10395 | – |
| 2026 Apr 21 17:57 | 2026 Apr 18 10:58:16 | 82.8228 | 0.00410 | 11.5982 | 137.3303 | 256.7555 | 14.10395 | – |
| 2026 Apr 20 17:57 | 2026 Apr 18 10:58:16 | 82.8228 | 0.00410 | 11.5982 | 137.3303 | 256.7555 | 14.10395 | – |
| 2026 Apr 19 17:58 | 2026 Apr 18 10:58:16 | 82.8228 | 0.00410 | 11.5982 | 137.3303 | 256.7555 | 14.10395 | – |
| 2026 Apr 18 17:56 | 2026 Apr 12 11:56:38 | 82.8235 | 0.00410 | 11.9156 | 153.7659 | 256.7555 | 14.10395 | – |
| 2026 Apr 16 17:57 | 2026 Apr 12 11:56:38 | 82.8235 | 0.00410 | 11.9156 | 153.7659 | 256.7555 | 14.10395 | – |
| 2026 Apr 14 17:57 | 2026 Apr 12 11:56:38 | 82.8235 | 0.00410 | 11.9156 | 153.7659 | 256.7555 | 14.10395 | – |
| 2026 Apr 13 17:57 | 2026 Apr 12 11:56:38 | 82.8235 | 0.00410 | 11.9156 | 153.7659 | 256.7555 | 14.10395 | – |
| 2026 Apr 12 17:57 | 2026 Apr 04 23:27:16 | 82.8238 | 0.00408 | 12.3161 | 174.1437 | 256.7555 | 14.10395 | – |
| 2026 Apr 11 17:57 | 2026 Apr 04 23:27:16 | 82.8238 | 0.00408 | 12.3161 | 174.1437 | 256.7555 | 14.10395 | – |
| 2026 Apr 10 17:58 | 2026 Apr 04 23:27:16 | 82.8238 | 0.00408 | 12.3161 | 174.1437 | 256.7555 | 14.10395 | – |
| 2026 Apr 09 18:01 | 2026 Apr 04 23:27:16 | 82.8238 | 0.00408 | 12.3161 | 174.1437 | 256.7555 | 14.10395 | – |
| 2026 Apr 08 17:57 | 2026 Apr 04 23:27:16 | 82.8238 | 0.00408 | 12.3161 | 174.1437 | 256.7555 | 14.10395 | – |
| 2026 Apr 07 17:57 | 2026 Apr 01 00:05:58 | 82.8244 | 0.00405 | 12.5278 | 184.9123 | 256.7555 | 14.10395 | – |
| 2026 Apr 06 17:57 | 2026 Apr 01 00:05:58 | 82.8244 | 0.00405 | 12.5278 | 184.9123 | 256.7555 | 14.10395 | – |
| 2026 Apr 05 17:56 | 2026 Apr 01 00:05:58 | 82.8244 | 0.00405 | 12.5278 | 184.9123 | 256.7555 | 14.10395 | – |
| 2026 Apr 04 17:57 | 2026 Apr 01 00:05:58 | 82.8244 | 0.00405 | 12.5278 | 184.9123 | 256.7555 | 14.10395 | – |